sensor_id;sensor_type;location;lat;lon;timestamp;temperature;humidity
4364;DHT22;15337;48.202;12.770;2022-07-29T00:00:07;22.60;99.90
4364;DHT22;15337;48.202;12.770;2022-07-29T00:02:35;22.60;99.90
4364;DHT22;15337;48.202;12.770;2022-07-29T00:05:02;22.50;99.90
4364;DHT22;15337;48.202;12.770;2022-07-29T00:07:29;22.50;99.90
4364;DHT22;15337;48.202;12.770;2022-07-29T00:09:57;22.50;99.90
4364;DHT22;15337;48.202;12.770;2022-07-29T00:12:25;22.50;99.90
4364;DHT22;15337;48.202;12.770;2022-07-29T00:14:52;22.40;99.90
4364;DHT22;15337;48.202;12.770;2022-07-29T00:17:19;22.40;99.90
4364;DHT22;15337;48.202;12.770;2022-07-29T00:19:46;22.40;99.90
4364;DHT22;15337;48.202;12.770;2022-07-29T00:22:13;22.30;99.90
4364;DHT22;15337;48.202;12.770;2022-07-29T00:24:40;22.30;99.90
4364;DHT22;15337;48.202;12.770;2022-07-29T00:27:08;22.20;99.90
4364;DHT22;15337;48.202;12.770;2022-07-29T00:29:35;22.20;99.90
4364;DHT22;15337;48.202;12.770;2022-07-29T00:32:03;22.20;99.90
4364;DHT22;15337;48.202;12.770;2022-07-29T00:34:30;22.20;99.90
4364;DHT22;15337;48.202;12.770;2022-07-29T00:37:14;22.10;99.90
4364;DHT22;15337;48.202;12.770;2022-07-29T00:39:41;22.10;99.90
4364;DHT22;15337;48.202;12.770;2022-07-29T00:42:09;22.00;99.90
4364;DHT22;15337;48.202;12.770;2022-07-29T00:44:37;22.00;99.90
4364;DHT22;15337;48.202;12.770;2022-07-29T00:47:04;22.00;99.90
4364;DHT22;15337;48.202;12.770;2022-07-29T00:49:32;22.00;99.90
4364;DHT22;15337;48.202;12.770;2022-07-29T00:52:00;22.00;99.90
4364;DHT22;15337;48.202;12.770;2022-07-29T00:54:27;22.00;99.90
4364;DHT22;15337;48.202;12.770;2022-07-29T00:56:56;21.90;99.90
4364;DHT22;15337;48.202;12.770;2022-07-29T00:59:25;21.90;99.90
4364;DHT22;15337;48.202;12.770;2022-07-29T01:01:53;21.90;99.90
4364;DHT22;15337;48.202;12.770;2022-07-29T01:04:21;21.90;99.90
4364;DHT22;15337;48.202;12.770;2022-07-29T01:06:48;21.90;99.90
4364;DHT22;15337;48.202;12.770;2022-07-29T01:09:15;21.80;99.90
4364;DHT22;15337;48.202;12.770;2022-07-29T01:11:45;21.80;99.90
4364;DHT22;15337;48.202;12.770;2022-07-29T01:14:13;21.80;99.90
4364;DHT22;15337;48.202;12.770;2022-07-29T01:16:47;21.80;99.60
4364;DHT22;15337;48.202;12.770;2022-07-29T01:19:42;21.80;99.90
4364;DHT22;15337;48.202;12.770;2022-07-29T01:22:25;21.70;98.30
4364;DHT22;15337;48.202;12.770;2022-07-29T01:25:14;21.70;96.50
4364;DHT22;15337;48.202;12.770;2022-07-29T01:27:51;21.70;96.10
4364;DHT22;15337;48.202;12.770;2022-07-29T01:30:24;21.70;95.50
4364;DHT22;15337;48.202;12.770;2022-07-29T01:32:55;21.60;95.60
4364;DHT22;15337;48.202;12.770;2022-07-29T01:35:25;21.60;95.10
4364;DHT22;15337;48.202;12.770;2022-07-29T01:38:00;21.60;94.60
4364;DHT22;15337;48.202;12.770;2022-07-29T01:40:33;21.60;94.90
4364;DHT22;15337;48.202;12.770;2022-07-29T01:43:08;21.50;93.80
4364;DHT22;15337;48.202;12.770;2022-07-29T01:45:40;21.50;93.80
4364;DHT22;15337;48.202;12.770;2022-07-29T01:48:13;21.50;93.40
4364;DHT22;15337;48.202;12.770;2022-07-29T01:50:47;21.40;94.30
4364;DHT22;15337;48.202;12.770;2022-07-29T01:53:21;21.40;94.30
4364;DHT22;15337;48.202;12.770;2022-07-29T01:55:48;21.30;94.50
4364;DHT22;15337;48.202;12.770;2022-07-29T01:58:18;21.30;93.60
4364;DHT22;15337;48.202;12.770;2022-07-29T02:00:48;21.30;94.00
4364;DHT22;15337;48.202;12.770;2022-07-29T02:03:17;21.20;94.60
4364;DHT22;15337;48.202;12.770;2022-07-29T02:05:46;21.20;94.70
4364;DHT22;15337;48.202;12.770;2022-07-29T02:08:15;21.10;94.50
4364;DHT22;15337;48.202;12.770;2022-07-29T02:10:45;21.10;94.50
4364;DHT22;15337;48.202;12.770;2022-07-29T02:13:12;21.10;94.50
4364;DHT22;15337;48.202;12.770;2022-07-29T02:15:42;21.10;94.10
4364;DHT22;15337;48.202;12.770;2022-07-29T02:18:14;21.10;93.70
4364;DHT22;15337;48.202;12.770;2022-07-29T02:20:45;21.10;93.30
4364;DHT22;15337;48.202;12.770;2022-07-29T02:23:15;21.10;93.10
4364;DHT22;15337;48.202;12.770;2022-07-29T02:25:45;21.10;93.40
4364;DHT22;15337;48.202;12.770;2022-07-29T02:28:13;21.10;92.60
4364;DHT22;15337;48.202;12.770;2022-07-29T02:30:43;21.10;93.00
4364;DHT22;15337;48.202;12.770;2022-07-29T02:33:14;21.10;92.80
4364;DHT22;15337;48.202;12.770;2022-07-29T02:35:43;21.10;92.70
4364;DHT22;15337;48.202;12.770;2022-07-29T02:38:14;21.10;92.10
4364;DHT22;15337;48.202;12.770;2022-07-29T02:41:00;21.10;91.90
4364;DHT22;15337;48.202;12.770;2022-07-29T02:43:29;21.10;91.90
4364;DHT22;15337;48.202;12.770;2022-07-29T02:45:59;21.10;92.60
4364;DHT22;15337;48.202;12.770;2022-07-29T02:48:36;21.10;93.70
4364;DHT22;15337;48.202;12.770;2022-07-29T02:51:08;21.00;94.50
4364;DHT22;15337;48.202;12.770;2022-07-29T02:53:35;21.00;94.00
4364;DHT22;15337;48.202;12.770;2022-07-29T02:56:07;21.00;93.90
4364;DHT22;15337;48.202;12.770;2022-07-29T02:58:40;21.00;94.90
4364;DHT22;15337;48.202;12.770;2022-07-29T03:01:11;21.00;95.10
4364;DHT22;15337;48.202;12.770;2022-07-29T03:03:42;21.00;95.50
4364;DHT22;15337;48.202;12.770;2022-07-29T03:06:12;21.00;95.90
4364;DHT22;15337;48.202;12.770;2022-07-29T03:08:40;20.90;94.50
4364;DHT22;15337;48.202;12.770;2022-07-29T03:11:08;20.90;94.70
4364;DHT22;15337;48.202;12.770;2022-07-29T03:13:36;20.90;94.50
4364;DHT22;15337;48.202;12.770;2022-07-29T03:16:04;21.00;94.70
4364;DHT22;15337;48.202;12.770;2022-07-29T03:18:31;20.90;95.40
4364;DHT22;15337;48.202;12.770;2022-07-29T03:21:00;20.90;95.20
4364;DHT22;15337;48.202;12.770;2022-07-29T03:23:27;20.90;95.20
4364;DHT22;15337;48.202;12.770;2022-07-29T03:25:55;20.90;96.20
4364;DHT22;15337;48.202;12.770;2022-07-29T03:28:23;20.90;96.00
4364;DHT22;15337;48.202;12.770;2022-07-29T03:30:50;20.80;98.30
4364;DHT22;15337;48.202;12.770;2022-07-29T03:33:17;20.70;99.80
4364;DHT22;15337;48.202;12.770;2022-07-29T03:35:44;20.60;99.90
4364;DHT22;15337;48.202;12.770;2022-07-29T03:38:12;20.60;99.90
4364;DHT22;15337;48.202;12.770;2022-07-29T03:40:44;20.70;99.90
4364;DHT22;15337;48.202;12.770;2022-07-29T03:43:13;20.70;99.90
4364;DHT22;15337;48.202;12.770;2022-07-29T03:45:43;20.70;99.90
4364;DHT22;15337;48.202;12.770;2022-07-29T03:48:13;20.60;99.90
4364;DHT22;15337;48.202;12.770;2022-07-29T03:50:42;20.60;99.90
4364;DHT22;15337;48.202;12.770;2022-07-29T03:53:09;20.50;99.90
4364;DHT22;15337;48.202;12.770;2022-07-29T03:55:41;20.50;99.90
4364;DHT22;15337;48.202;12.770;2022-07-29T03:58:10;20.50;99.90
4364;DHT22;15337;48.202;12.770;2022-07-29T04:00:39;20.50;99.90
4364;DHT22;15337;48.202;12.770;2022-07-29T04:03:07;20.50;99.90
4364;DHT22;15337;48.202;12.770;2022-07-29T04:05:35;20.50;99.90
4364;DHT22;15337;48.202;12.770;2022-07-29T04:08:02;20.50;99.90
4364;DHT22;15337;48.202;12.770;2022-07-29T04:10:29;20.50;99.90
4364;DHT22;15337;48.202;12.770;2022-07-29T04:12:57;20.60;99.90
4364;DHT22;15337;48.202;12.770;2022-07-29T04:15:24;20.60;99.90
4364;DHT22;15337;48.202;12.770;2022-07-29T04:17:53;20.60;99.90
4364;DHT22;15337;48.202;12.770;2022-07-29T04:20:19;20.50;99.90
4364;DHT22;15337;48.202;12.770;2022-07-29T04:22:46;20.60;99.90
4364;DHT22;15337;48.202;12.770;2022-07-29T04:25:13;20.60;99.90
4364;DHT22;15337;48.202;12.770;2022-07-29T04:27:40;20.60;99.90
4364;DHT22;15337;48.202;12.770;2022-07-29T04:30:27;20.60;99.90
4364;DHT22;15337;48.202;12.770;2022-07-29T04:32:54;20.60;99.90
4364;DHT22;15337;48.202;12.770;2022-07-29T04:35:21;20.60;99.90
4364;DHT22;15337;48.202;12.770;2022-07-29T04:37:47;20.60;99.90
4364;DHT22;15337;48.202;12.770;2022-07-29T04:40:15;20.70;99.90
4364;DHT22;15337;48.202;12.770;2022-07-29T04:42:41;20.70;99.80
4364;DHT22;15337;48.202;12.770;2022-07-29T04:45:09;20.70;99.40
4364;DHT22;15337;48.202;12.770;2022-07-29T04:47:37;20.80;99.90
4364;DHT22;15337;48.202;12.770;2022-07-29T04:50:05;20.80;99.90
4364;DHT22;15337;48.202;12.770;2022-07-29T04:52:32;20.80;99.90
4364;DHT22;15337;48.202;12.770;2022-07-29T04:55:00;20.90;99.90
4364;DHT22;15337;48.202;12.770;2022-07-29T04:57:27;20.90;99.90
4364;DHT22;15337;48.202;12.770;2022-07-29T04:59:53;21.00;99.90
4364;DHT22;15337;48.202;12.770;2022-07-29T05:02:20;21.00;99.90
4364;DHT22;15337;48.202;12.770;2022-07-29T05:04:49;21.00;99.90
4364;DHT22;15337;48.202;12.770;2022-07-29T05:07:15;21.10;99.90
4364;DHT22;15337;48.202;12.770;2022-07-29T05:09:42;21.10;99.90
4364;DHT22;15337;48.202;12.770;2022-07-29T05:12:09;21.20;99.90
4364;DHT22;15337;48.202;12.770;2022-07-29T05:14:37;21.20;99.90
4364;DHT22;15337;48.202;12.770;2022-07-29T05:17:04;21.20;99.90
4364;DHT22;15337;48.202;12.770;2022-07-29T05:19:31;21.20;99.90
4364;DHT22;15337;48.202;12.770;2022-07-29T05:21:59;21.20;99.90
4364;DHT22;15337;48.202;12.770;2022-07-29T05:24:26;21.20;99.90
4364;DHT22;15337;48.202;12.770;2022-07-29T05:26:53;21.30;99.90
4364;DHT22;15337;48.202;12.770;2022-07-29T05:29:20;21.30;99.90
4364;DHT22;15337;48.202;12.770;2022-07-29T05:31:47;21.30;99.90
4364;DHT22;15337;48.202;12.770;2022-07-29T05:34:14;21.30;99.90
4364;DHT22;15337;48.202;12.770;2022-07-29T05:36:41;21.20;99.90
4364;DHT22;15337;48.202;12.770;2022-07-29T05:39:09;21.20;99.90
4364;DHT22;15337;48.202;12.770;2022-07-29T05:41:36;21.20;99.90
4364;DHT22;15337;48.202;12.770;2022-07-29T05:44:03;21.20;99.90
4364;DHT22;15337;48.202;12.770;2022-07-29T05:46:30;21.30;99.90
4364;DHT22;15337;48.202;12.770;2022-07-29T05:48:57;21.30;99.90
4364;DHT22;15337;48.202;12.770;2022-07-29T05:51:23;21.40;99.90
4364;DHT22;15337;48.202;12.770;2022-07-29T05:53:50;21.40;99.90
4364;DHT22;15337;48.202;12.770;2022-07-29T05:56:19;21.50;99.90
4364;DHT22;15337;48.202;12.770;2022-07-29T05:58:46;21.60;99.90
4364;DHT22;15337;48.202;12.770;2022-07-29T06:01:13;21.70;99.90
4364;DHT22;15337;48.202;12.770;2022-07-29T06:03:40;21.80;99.90
4364;DHT22;15337;48.202;12.770;2022-07-29T06:06:07;21.90;99.90
4364;DHT22;15337;48.202;12.770;2022-07-29T06:08:34;22.00;99.90
4364;DHT22;15337;48.202;12.770;2022-07-29T06:11:02;22.10;99.90
4364;DHT22;15337;48.202;12.770;2022-07-29T06:13:34;22.20;99.90
4364;DHT22;15337;48.202;12.770;2022-07-29T06:16:01;22.20;99.90
4364;DHT22;15337;48.202;12.770;2022-07-29T06:18:28;22.30;99.30
4364;DHT22;15337;48.202;12.770;2022-07-29T06:20:55;22.40;99.00
4364;DHT22;15337;48.202;12.770;2022-07-29T06:23:22;22.50;99.90
4364;DHT22;15337;48.202;12.770;2022-07-29T06:25:49;22.50;98.80
4364;DHT22;15337;48.202;12.770;2022-07-29T06:28:16;22.60;98.30
4364;DHT22;15337;48.202;12.770;2022-07-29T06:30:44;22.70;98.20
4364;DHT22;15337;48.202;12.770;2022-07-29T06:33:16;22.70;98.40
4364;DHT22;15337;48.202;12.770;2022-07-29T06:35:43;22.80;98.30
4364;DHT22;15337;48.202;12.770;2022-07-29T06:38:11;22.90;98.60
4364;DHT22;15337;48.202;12.770;2022-07-29T06:40:41;23.00;98.60
4364;DHT22;15337;48.202;12.770;2022-07-29T06:43:26;23.00;98.30
4364;DHT22;15337;48.202;12.770;2022-07-29T06:45:57;23.00;97.50
4364;DHT22;15337;48.202;12.770;2022-07-29T06:48:24;23.10;96.90
4364;DHT22;15337;48.202;12.770;2022-07-29T06:50:52;23.20;96.60
4364;DHT22;15337;48.202;12.770;2022-07-29T06:53:19;23.20;96.80
4364;DHT22;15337;48.202;12.770;2022-07-29T06:55:46;23.30;96.20
4364;DHT22;15337;48.202;12.770;2022-07-29T06:58:13;23.40;96.40
4364;DHT22;15337;48.202;12.770;2022-07-29T07:00:41;23.50;97.00
4364;DHT22;15337;48.202;12.770;2022-07-29T07:03:09;23.80;96.00
4364;DHT22;15337;48.202;12.770;2022-07-29T07:05:36;24.00;93.10
4364;DHT22;15337;48.202;12.770;2022-07-29T07:08:04;24.00;93.40
4364;DHT22;15337;48.202;12.770;2022-07-29T07:10:31;24.20;92.20
4364;DHT22;15337;48.202;12.770;2022-07-29T07:12:59;24.30;91.90
4364;DHT22;15337;48.202;12.770;2022-07-29T07:15:26;24.50;91.10
4364;DHT22;15337;48.202;12.770;2022-07-29T07:17:53;24.50;91.00
4364;DHT22;15337;48.202;12.770;2022-07-29T07:20:21;24.60;90.40
4364;DHT22;15337;48.202;12.770;2022-07-29T07:22:48;24.70;91.40
4364;DHT22;15337;48.202;12.770;2022-07-29T07:25:15;25.00;91.10
4364;DHT22;15337;48.202;12.770;2022-07-29T07:27:43;25.10;89.70
4364;DHT22;15337;48.202;12.770;2022-07-29T07:30:10;25.10;88.80
4364;DHT22;15337;48.202;12.770;2022-07-29T07:32:37;25.10;85.10
4364;DHT22;15337;48.202;12.770;2022-07-29T07:35:05;25.20;85.40
4364;DHT22;15337;48.202;12.770;2022-07-29T07:37:34;25.20;85.20
4364;DHT22;15337;48.202;12.770;2022-07-29T07:40:02;25.30;86.00
4364;DHT22;15337;48.202;12.770;2022-07-29T07:42:29;25.40;85.90
4364;DHT22;15337;48.202;12.770;2022-07-29T07:44:56;25.60;84.30
4364;DHT22;15337;48.202;12.770;2022-07-29T07:47:23;25.80;83.00
4364;DHT22;15337;48.202;12.770;2022-07-29T07:49:50;26.00;84.20
4364;DHT22;15337;48.202;12.770;2022-07-29T07:52:18;26.30;84.30
4364;DHT22;15337;48.202;12.770;2022-07-29T07:54:47;26.60;80.00
4364;DHT22;15337;48.202;12.770;2022-07-29T07:57:15;26.80;80.70
4364;DHT22;15337;48.202;12.770;2022-07-29T07:59:42;26.80;78.00
4364;DHT22;15337;48.202;12.770;2022-07-29T08:02:09;27.00;78.50
4364;DHT22;15337;48.202;12.770;2022-07-29T08:04:36;27.10;77.10
4364;DHT22;15337;48.202;12.770;2022-07-29T08:07:06;27.20;75.40
4364;DHT22;15337;48.202;12.770;2022-07-29T08:09:34;27.40;76.80
4364;DHT22;15337;48.202;12.770;2022-07-29T08:12:03;27.50;73.00
4364;DHT22;15337;48.202;12.770;2022-07-29T08:14:31;27.70;76.30
4364;DHT22;15337;48.202;12.770;2022-07-29T08:16:59;27.90;72.60
4364;DHT22;15337;48.202;12.770;2022-07-29T08:19:26;28.10;71.60
4364;DHT22;15337;48.202;12.770;2022-07-29T08:21:53;28.30;70.20
4364;DHT22;15337;48.202;12.770;2022-07-29T08:24:20;28.40;68.80
4364;DHT22;15337;48.202;12.770;2022-07-29T08:27:06;28.50;68.30
4364;DHT22;15337;48.202;12.770;2022-07-29T08:29:33;28.60;67.80
4364;DHT22;15337;48.202;12.770;2022-07-29T08:32:00;28.70;64.90
4364;DHT22;15337;48.202;12.770;2022-07-29T08:34:27;28.80;63.60
4364;DHT22;15337;48.202;12.770;2022-07-29T08:36:54;29.00;64.90
4364;DHT22;15337;48.202;12.770;2022-07-29T08:39:22;29.10;65.80
4364;DHT22;15337;48.202;12.770;2022-07-29T08:41:49;29.30;65.20
4364;DHT22;15337;48.202;12.770;2022-07-29T08:44:18;29.50;61.90
4364;DHT22;15337;48.202;12.770;2022-07-29T08:46:45;29.70;65.70
4364;DHT22;15337;48.202;12.770;2022-07-29T08:49:12;29.90;62.10
4364;DHT22;15337;48.202;12.770;2022-07-29T08:51:40;30.20;59.80
4364;DHT22;15337;48.202;12.770;2022-07-29T08:54:09;30.40;59.80
4364;DHT22;15337;48.202;12.770;2022-07-29T08:56:36;30.60;58.90
4364;DHT22;15337;48.202;12.770;2022-07-29T08:59:05;30.70;59.30
4364;DHT22;15337;48.202;12.770;2022-07-29T09:01:37;30.80;57.80
4364;DHT22;15337;48.202;12.770;2022-07-29T09:04:10;30.80;58.40
4364;DHT22;15337;48.202;12.770;2022-07-29T09:06:42;30.90;55.80
4364;DHT22;15337;48.202;12.770;2022-07-29T09:09:09;31.00;56.50
4364;DHT22;15337;48.202;12.770;2022-07-29T09:11:36;31.00;55.40
4364;DHT22;15337;48.202;12.770;2022-07-29T09:14:03;31.30;56.50
4364;DHT22;15337;48.202;12.770;2022-07-29T09:16:50;31.40;53.20
4364;DHT22;15337;48.202;12.770;2022-07-29T09:19:26;31.50;52.70
4364;DHT22;15337;48.202;12.770;2022-07-29T09:21:54;31.60;53.10
4364;DHT22;15337;48.202;12.770;2022-07-29T09:27:19;31.60;51.50
4364;DHT22;15337;48.202;12.770;2022-07-29T09:29:46;31.90;52.90
4364;DHT22;15337;48.202;12.770;2022-07-29T09:32:15;32.00;49.70
4364;DHT22;15337;48.202;12.770;2022-07-29T09:34:42;32.20;52.00
4364;DHT22;15337;48.202;12.770;2022-07-29T09:37:09;32.50;51.10
4364;DHT22;15337;48.202;12.770;2022-07-29T09:39:38;32.60;50.00
4364;DHT22;15337;48.202;12.770;2022-07-29T09:42:11;32.40;47.60
4364;DHT22;15337;48.202;12.770;2022-07-29T09:44:46;32.50;49.40
4364;DHT22;15337;48.202;12.770;2022-07-29T09:47:16;32.60;48.10
4364;DHT22;15337;48.202;12.770;2022-07-29T09:49:51;32.80;48.30
4364;DHT22;15337;48.202;12.770;2022-07-29T09:52:19;32.80;49.10
4364;DHT22;15337;48.202;12.770;2022-07-29T09:54:46;32.80;46.80
4364;DHT22;15337;48.202;12.770;2022-07-29T09:57:25;33.00;48.20
4364;DHT22;15337;48.202;12.770;2022-07-29T09:59:59;33.00;45.80
4364;DHT22;15337;48.202;12.770;2022-07-29T10:02:32;33.20;47.20
4364;DHT22;15337;48.202;12.770;2022-07-29T10:05:00;33.00;45.50
4364;DHT22;15337;48.202;12.770;2022-07-29T10:07:43;33.10;50.10
4364;DHT22;15337;48.202;12.770;2022-07-29T10:10:10;33.10;49.80
4364;DHT22;15337;48.202;12.770;2022-07-29T10:12:49;33.10;47.40
4364;DHT22;15337;48.202;12.770;2022-07-29T10:15:16;33.10;46.60
4364;DHT22;15337;48.202;12.770;2022-07-29T10:17:45;33.10;48.50
4364;DHT22;15337;48.202;12.770;2022-07-29T10:20:12;33.20;47.90
4364;DHT22;15337;48.202;12.770;2022-07-29T10:22:40;33.20;47.40
4364;DHT22;15337;48.202;12.770;2022-07-29T10:25:08;33.40;47.50
4364;DHT22;15337;48.202;12.770;2022-07-29T10:27:36;33.40;46.50
4364;DHT22;15337;48.202;12.770;2022-07-29T10:30:03;33.40;45.50
4364;DHT22;15337;48.202;12.770;2022-07-29T10:32:39;33.70;45.70
4364;DHT22;15337;48.202;12.770;2022-07-29T10:35:33;33.80;45.70
4364;DHT22;15337;48.202;12.770;2022-07-29T10:38:28;33.80;45.00
4364;DHT22;15337;48.202;12.770;2022-07-29T10:41:02;33.40;43.50
4364;DHT22;15337;48.202;12.770;2022-07-29T10:43:51;33.70;49.10
4364;DHT22;15337;48.202;12.770;2022-07-29T10:46:18;33.90;45.30
4364;DHT22;15337;48.202;12.770;2022-07-29T10:49:09;34.00;44.60
4364;DHT22;15337;48.202;12.770;2022-07-29T10:51:57;34.10;45.90
4364;DHT22;15337;48.202;12.770;2022-07-29T10:54:48;34.00;45.30
4364;DHT22;15337;48.202;12.770;2022-07-29T10:57:24;33.90;47.00
4364;DHT22;15337;48.202;12.770;2022-07-29T11:00:26;33.60;44.60
4364;DHT22;15337;48.202;12.770;2022-07-29T11:02:53;33.60;44.70
4364;DHT22;15337;48.202;12.770;2022-07-29T11:05:22;33.60;45.80
4364;DHT22;15337;48.202;12.770;2022-07-29T11:14:08;33.20;44.00
4364;DHT22;15337;48.202;12.770;2022-07-29T11:17:00;33.20;45.70
4364;DHT22;15337;48.202;12.770;2022-07-29T11:19:29;33.20;43.30
4364;DHT22;15337;48.202;12.770;2022-07-29T11:21:56;33.20;43.60
4364;DHT22;15337;48.202;12.770;2022-07-29T11:24:25;33.30;46.20
4364;DHT22;15337;48.202;12.770;2022-07-29T11:27:14;33.30;43.10
4364;DHT22;15337;48.202;12.770;2022-07-29T11:29:51;33.40;43.20
4364;DHT22;15337;48.202;12.770;2022-07-29T11:32:18;33.20;42.80
4364;DHT22;15337;48.202;12.770;2022-07-29T11:34:47;33.30;43.30
4364;DHT22;15337;48.202;12.770;2022-07-29T11:37:15;33.60;44.90
4364;DHT22;15337;48.202;12.770;2022-07-29T11:39:44;33.70;44.70
4364;DHT22;15337;48.202;12.770;2022-07-29T11:42:48;33.60;43.90
4364;DHT22;15337;48.202;12.770;2022-07-29T11:45:22;33.60;43.90
4364;DHT22;15337;48.202;12.770;2022-07-29T11:47:55;33.70;43.90
4364;DHT22;15337;48.202;12.770;2022-07-29T11:50:29;33.80;45.70
4364;DHT22;15337;48.202;12.770;2022-07-29T11:52:56;33.70;43.40
4364;DHT22;15337;48.202;12.770;2022-07-29T11:55:25;33.70;44.90
4364;DHT22;15337;48.202;12.770;2022-07-29T11:57:53;33.70;45.50
4364;DHT22;15337;48.202;12.770;2022-07-29T12:00:24;33.70;44.30
4364;DHT22;15337;48.202;12.770;2022-07-29T12:02:51;33.70;44.30
4364;DHT22;15337;48.202;12.770;2022-07-29T12:05:19;33.60;43.60
4364;DHT22;15337;48.202;12.770;2022-07-29T12:07:46;33.70;44.30
4364;DHT22;15337;48.202;12.770;2022-07-29T12:10:14;33.80;44.00
4364;DHT22;15337;48.202;12.770;2022-07-29T12:12:41;33.70;43.40
4364;DHT22;15337;48.202;12.770;2022-07-29T12:15:15;33.80;43.80
4364;DHT22;15337;48.202;12.770;2022-07-29T12:17:47;33.80;44.10
4364;DHT22;15337;48.202;12.770;2022-07-29T12:20:22;33.70;45.60
4364;DHT22;15337;48.202;12.770;2022-07-29T12:22:49;33.60;45.60
4364;DHT22;15337;48.202;12.770;2022-07-29T12:25:19;33.50;46.90
4364;DHT22;15337;48.202;12.770;2022-07-29T12:27:46;33.50;47.00
4364;DHT22;15337;48.202;12.770;2022-07-29T12:30:15;33.70;46.60
4364;DHT22;15337;48.202;12.770;2022-07-29T12:32:43;33.80;45.90
4364;DHT22;15337;48.202;12.770;2022-07-29T12:35:15;33.80;45.70
4364;DHT22;15337;48.202;12.770;2022-07-29T12:37:43;33.70;46.50
4364;DHT22;15337;48.202;12.770;2022-07-29T12:40:12;33.80;47.00
4364;DHT22;15337;48.202;12.770;2022-07-29T12:42:41;33.80;44.40
4364;DHT22;15337;48.202;12.770;2022-07-29T12:45:08;33.70;43.30
4364;DHT22;15337;48.202;12.770;2022-07-29T12:47:53;33.60;43.10
4364;DHT22;15337;48.202;12.770;2022-07-29T12:50:21;33.60;43.10
4364;DHT22;15337;48.202;12.770;2022-07-29T12:52:48;33.50;44.00
4364;DHT22;15337;48.202;12.770;2022-07-29T12:55:15;33.60;45.10
4364;DHT22;15337;48.202;12.770;2022-07-29T12:57:45;33.70;44.00
4364;DHT22;15337;48.202;12.770;2022-07-29T13:00:15;34.00;43.30
4364;DHT22;15337;48.202;12.770;2022-07-29T13:02:42;33.90;45.90
4364;DHT22;15337;48.202;12.770;2022-07-29T13:05:10;33.80;44.60
4364;DHT22;15337;48.202;12.770;2022-07-29T13:07:39;33.70;43.80
4364;DHT22;15337;48.202;12.770;2022-07-29T13:10:11;34.00;44.40
4364;DHT22;15337;48.202;12.770;2022-07-29T13:12:39;34.10;44.00
4364;DHT22;15337;48.202;12.770;2022-07-29T13:15:14;33.90;46.00
4364;DHT22;15337;48.202;12.770;2022-07-29T13:17:42;33.80;46.90
4364;DHT22;15337;48.202;12.770;2022-07-29T13:20:11;33.70;45.10
4364;DHT22;15337;48.202;12.770;2022-07-29T13:22:41;34.00;44.90
4364;DHT22;15337;48.202;12.770;2022-07-29T13:25:09;34.30;45.00
4364;DHT22;15337;48.202;12.770;2022-07-29T13:27:37;34.60;44.60
4364;DHT22;15337;48.202;12.770;2022-07-29T13:30:06;34.60;44.20
4364;DHT22;15337;48.202;12.770;2022-07-29T13:32:34;34.60;45.50
4364;DHT22;15337;48.202;12.770;2022-07-29T13:35:04;34.10;44.40
4364;DHT22;15337;48.202;12.770;2022-07-29T13:37:31;34.10;44.80
4364;DHT22;15337;48.202;12.770;2022-07-29T13:40:01;34.00;45.70
4364;DHT22;15337;48.202;12.770;2022-07-29T13:42:30;34.00;45.30
4364;DHT22;15337;48.202;12.770;2022-07-29T13:44:57;33.80;45.90
4364;DHT22;15337;48.202;12.770;2022-07-29T13:47:24;33.90;46.10
4364;DHT22;15337;48.202;12.770;2022-07-29T13:49:51;34.10;46.00
4364;DHT22;15337;48.202;12.770;2022-07-29T13:52:18;34.50;45.80
4364;DHT22;15337;48.202;12.770;2022-07-29T13:54:45;34.70;47.10
4364;DHT22;15337;48.202;12.770;2022-07-29T13:57:14;34.90;46.00
4364;DHT22;15337;48.202;12.770;2022-07-29T13:59:41;35.20;44.90
4364;DHT22;15337;48.202;12.770;2022-07-29T14:02:10;35.40;44.00
4364;DHT22;15337;48.202;12.770;2022-07-29T14:04:38;35.60;43.60
4364;DHT22;15337;48.202;12.770;2022-07-29T14:07:05;35.40;43.60
4364;DHT22;15337;48.202;12.770;2022-07-29T14:09:32;35.30;43.20
4364;DHT22;15337;48.202;12.770;2022-07-29T14:11:59;35.40;45.00
4364;DHT22;15337;48.202;12.770;2022-07-29T14:14:29;35.50;42.30
4364;DHT22;15337;48.202;12.770;2022-07-29T14:16:57;35.50;42.70
4364;DHT22;15337;48.202;12.770;2022-07-29T14:19:24;35.80;42.90
4364;DHT22;15337;48.202;12.770;2022-07-29T14:21:51;36.00;42.00
4364;DHT22;15337;48.202;12.770;2022-07-29T14:24:18;36.20;40.40
4364;DHT22;15337;48.202;12.770;2022-07-29T14:26:45;36.30;42.30
4364;DHT22;15337;48.202;12.770;2022-07-29T14:29:12;36.40;40.50
4364;DHT22;15337;48.202;12.770;2022-07-29T14:31:40;36.40;40.50
4364;DHT22;15337;48.202;12.770;2022-07-29T14:34:08;36.50;41.00
4364;DHT22;15337;48.202;12.770;2022-07-29T14:36:35;36.40;39.50
4364;DHT22;15337;48.202;12.770;2022-07-29T14:39:02;36.60;40.10
4364;DHT22;15337;48.202;12.770;2022-07-29T14:41:29;36.60;37.60
4364;DHT22;15337;48.202;12.770;2022-07-29T14:43:56;36.50;37.90
4364;DHT22;15337;48.202;12.770;2022-07-29T14:46:26;36.40;36.40
4364;DHT22;15337;48.202;12.770;2022-07-29T14:48:54;36.40;39.20
4364;DHT22;15337;48.202;12.770;2022-07-29T14:51:21;36.10;38.50
4364;DHT22;15337;48.202;12.770;2022-07-29T14:53:48;36.10;39.10
4364;DHT22;15337;48.202;12.770;2022-07-29T14:56:15;36.10;40.70
4364;DHT22;15337;48.202;12.770;2022-07-29T14:58:42;36.30;39.00
4364;DHT22;15337;48.202;12.770;2022-07-29T15:01:09;36.30;38.80
4364;DHT22;15337;48.202;12.770;2022-07-29T15:03:36;36.10;38.70
4364;DHT22;15337;48.202;12.770;2022-07-29T15:06:04;35.60;38.50
4364;DHT22;15337;48.202;12.770;2022-07-29T15:08:31;35.40;40.20
4364;DHT22;15337;48.202;12.770;2022-07-29T15:10:59;35.30;39.50
4364;DHT22;15337;48.202;12.770;2022-07-29T15:13:26;35.20;41.00
4364;DHT22;15337;48.202;12.770;2022-07-29T15:15:53;35.00;39.30
4364;DHT22;15337;48.202;12.770;2022-07-29T15:18:20;34.70;39.60
4364;DHT22;15337;48.202;12.770;2022-07-29T15:20:47;34.70;40.70
4364;DHT22;15337;48.202;12.770;2022-07-29T15:23:15;34.70;40.70
4364;DHT22;15337;48.202;12.770;2022-07-29T15:25:42;34.90;40.70
4364;DHT22;15337;48.202;12.770;2022-07-29T15:28:09;34.80;41.00
4364;DHT22;15337;48.202;12.770;2022-07-29T15:30:36;34.60;40.40
4364;DHT22;15337;48.202;12.770;2022-07-29T15:33:06;34.10;39.90
4364;DHT22;15337;48.202;12.770;2022-07-29T15:35:34;33.70;40.00
4364;DHT22;15337;48.202;12.770;2022-07-29T15:38:01;33.70;40.90
4364;DHT22;15337;48.202;12.770;2022-07-29T15:40:30;33.70;40.90
4364;DHT22;15337;48.202;12.770;2022-07-29T15:42:57;33.70;41.60
4364;DHT22;15337;48.202;12.770;2022-07-29T15:45:26;33.60;41.20
4364;DHT22;15337;48.202;12.770;2022-07-29T15:47:53;33.30;41.50
4364;DHT22;15337;48.202;12.770;2022-07-29T15:50:20;33.20;42.80
4364;DHT22;15337;48.202;12.770;2022-07-29T15:52:47;33.20;43.80